Time;durP1;ratioP1;P1;durP2;ratioP2;P2;SDS_P1;SDS_P2;PMS_P1;PMS_P2;Temp;Humidity;BMP_temperature;BMP_pressure;BME280_temperature;BME280_humidity;BME280_pressure;Samples;Min_cycle;Max_cycle;Signal;HPM_P1;HPM_P2
2021/07/19 00:00:04;;;;;;;7.27;5.93;;;;;;;;;;5009081;28;20201;-79
2021/07/19 00:02:32;;;;;;;7.50;5.93;;;;;;;;;;4992093;28;20315;-79
2021/07/19 00:04:59;;;;;;;9.00;6.50;;;;;;;;;;4992375;28;20240;-80
2021/07/19 00:07:26;;;;;;;7.40;6.40;;;;;;;;;;4997020;28;20280;-80
2021/07/19 00:09:53;;;;;;;8.93;6.40;;;;;;;;;;5011345;28;20260;-79
2021/07/19 00:12:20;;;;;;;7.03;5.72;;;;;;;;;;4998233;28;20285;-80
2021/07/19 00:14:49;;;;;;;8.93;6.50;;;;;;;;;;5010182;28;20243;-79
2021/07/19 00:17:19;;;;;;;8.27;5.83;;;;;;;;;;5009921;28;20232;-79
2021/07/19 00:19:48;;;;;;;8.67;6.20;;;;;;;;;;4995739;28;20536;-79
2021/07/19 00:22:16;;;;;;;7.87;6.07;;;;;;;;;;4998506;28;20217;-80
2021/07/19 00:24:43;;;;;;;6.95;6.25;;;;;;;;;;5015408;28;20207;-80
2021/07/19 00:27:11;;;;;;;7.87;6.30;;;;;;;;;;5006212;28;20290;-80
2021/07/19 00:29:38;;;;;;;8.70;6.77;;;;;;;;;;4999056;28;20288;-79
2021/07/19 00:32:07;;;;;;;7.23;5.97;;;;;;;;;;4999232;28;20934;-79
2021/07/19 00:34:35;;;;;;;9.70;6.57;;;;;;;;;;4995515;28;20321;-79
2021/07/19 00:37:02;;;;;;;8.20;7.03;;;;;;;;;;5006108;28;20193;-79
2021/07/19 00:39:30;;;;;;;7.87;6.57;;;;;;;;;;5014887;28;20227;-79
2021/07/19 00:41:57;;;;;;;8.07;6.63;;;;;;;;;;5001888;28;20332;-79
2021/07/19 00:44:24;;;;;;;8.53;7.13;;;;;;;;;;5011580;28;20194;-79
2021/07/19 00:46:52;;;;;;;7.77;6.47;;;;;;;;;;5009873;28;20276;-79
2021/07/19 00:49:21;;;;;;;9.47;7.30;;;;;;;;;;5014640;28;20243;-79
2021/07/19 00:51:49;;;;;;;10.93;7.50;;;;;;;;;;5007528;28;20438;-79
2021/07/19 00:54:18;;;;;;;9.50;7.10;;;;;;;;;;4995712;28;20234;-80
2021/07/19 00:56:45;;;;;;;12.27;7.57;;;;;;;;;;4996343;28;20689;-79
2021/07/19 00:59:15;;;;;;;9.27;7.10;;;;;;;;;;5014408;28;20285;-79
2021/07/19 01:01:44;;;;;;;10.43;7.83;;;;;;;;;;4996746;28;20296;-80
2021/07/19 01:04:12;;;;;;;12.53;7.53;;;;;;;;;;5014322;28;20680;-79
2021/07/19 01:06:41;;;;;;;8.87;7.13;;;;;;;;;;5011137;28;20279;-79
2021/07/19 01:09:08;;;;;;;8.67;7.77;;;;;;;;;;5000414;28;20261;-79
2021/07/19 01:11:36;;;;;;;10.63;8.00;;;;;;;;;;5003422;28;20281;-80
2021/07/19 01:14:03;;;;;;;9.53;8.27;;;;;;;;;;5004603;28;20628;-79
2021/07/19 01:16:30;;;;;;;9.17;8.10;;;;;;;;;;5004881;28;20289;-79
2021/07/19 01:18:57;;;;;;;9.97;8.10;;;;;;;;;;5006206;28;20289;-79
2021/07/19 01:21:37;;;;;;;9.33;7.97;;;;;;;;;;5013650;28;20603;-79
2021/07/19 01:24:13;;;;;;;11.33;8.67;;;;;;;;;;5013226;28;20221;-79
2021/07/19 01:26:48;;;;;;;11.67;8.47;;;;;;;;;;5011506;28;20296;-79
2021/07/19 01:29:20;;;;;;;9.17;8.27;;;;;;;;;;5001234;28;20639;-79
2021/07/19 01:31:48;;;;;;;9.93;8.50;;;;;;;;;;5002417;28;20233;-79
2021/07/19 01:34:18;;;;;;;12.03;8.23;;;;;;;;;;5004017;28;20259;-79
2021/07/19 01:36:47;;;;;;;12.03;8.10;;;;;;;;;;5007401;28;20281;-79
2021/07/19 01:39:15;;;;;;;9.07;8.00;;;;;;;;;;5003477;28;20267;-79
2021/07/19 01:41:43;;;;;;;10.03;8.67;;;;;;;;;;5014177;28;20233;-80
2021/07/19 01:44:11;;;;;;;10.87;8.37;;;;;;;;;;4998832;28;20744;-80
2021/07/19 01:46:41;;;;;;;10.30;7.93;;;;;;;;;;5011762;28;20288;-79
2021/07/19 01:49:08;;;;;;;10.03;8.33;;;;;;;;;;5006895;28;20308;-79
2021/07/19 01:51:36;;;;;;;11.30;8.00;;;;;;;;;;5004406;28;20723;-79
2021/07/19 01:54:03;;;;;;;10.63;8.30;;;;;;;;;;5002430;28;20285;-79
2021/07/19 01:56:31;;;;;;;9.13;8.07;;;;;;;;;;5014218;28;20236;-80
2021/07/19 01:58:59;;;;;;;10.83;8.40;;;;;;;;;;5013200;28;20287;-79
2021/07/19 02:01:27;;;;;;;11.57;8.77;;;;;;;;;;5013652;28;20205;-79
2021/07/19 02:03:55;;;;;;;9.73;7.80;;;;;;;;;;5013370;28;20308;-79
2021/07/19 02:06:24;;;;;;;9.60;8.57;;;;;;;;;;5013289;28;20741;-79
2021/07/19 02:08:51;;;;;;;8.77;7.87;;;;;;;;;;5012963;28;20325;-79
2021/07/19 02:11:19;;;;;;;10.27;9.17;;;;;;;;;;5013614;28;20291;-79
2021/07/19 02:13:47;;;;;;;11.10;8.80;;;;;;;;;;5013538;28;20284;-80
2021/07/19 02:16:14;;;;;;;9.47;8.27;;;;;;;;;;5013245;28;20316;-80
2021/07/19 02:18:43;;;;;;;9.33;8.33;;;;;;;;;;5013445;28;20712;-79
2021/07/19 02:21:12;;;;;;;10.60;8.83;;;;;;;;;;5013382;28;20205;-79
2021/07/19 02:23:41;;;;;;;11.63;8.67;;;;;;;;;;5012538;28;20267;-79
2021/07/19 02:26:09;;;;;;;10.60;8.90;;;;;;;;;;5012596;28;20590;-80
2021/07/19 02:28:37;;;;;;;9.83;8.83;;;;;;;;;;5010851;28;20655;-79
2021/07/19 02:31:05;;;;;;;11.33;9.07;;;;;;;;;;5003175;28;20284;-80
2021/07/19 02:33:33;;;;;;;10.00;8.63;;;;;;;;;;5012713;28;20296;-79
2021/07/19 02:36:00;;;;;;;13.63;8.40;;;;;;;;;;5012435;28;20229;-80
2021/07/19 02:38:29;;;;;;;12.37;8.87;;;;;;;;;;5011037;28;20305;-80
2021/07/19 02:40:56;;;;;;;9.90;8.93;;;;;;;;;;5000790;28;20209;-79
2021/07/19 02:43:25;;;;;;;11.33;8.53;;;;;;;;;;5011498;28;20248;-79
2021/07/19 02:45:53;;;;;;;10.23;9.23;;;;;;;;;;5006706;28;20288;-79
2021/07/19 02:48:21;;;;;;;9.23;8.20;;;;;;;;;;4993271;28;20233;-80
2021/07/19 02:50:50;;;;;;;10.20;8.47;;;;;;;;;;4993550;28;20288;-79
2021/07/19 02:53:18;;;;;;;11.73;8.97;;;;;;;;;;5005130;28;20743;-79
2021/07/19 02:55:48;;;;;;;13.13;8.53;;;;;;;;;;5010337;28;20225;-79
2021/07/19 02:58:16;;;;;;;10.37;8.93;;;;;;;;;;4999019;28;20692;-80
2021/07/19 03:00:43;;;;;;;10.37;8.73;;;;;;;;;;5012019;28;20255;-79
2021/07/19 03:03:13;;;;;;;10.23;7.73;;;;;;;;;;5012337;28;20220;-79
2021/07/19 03:05:44;;;;;;;11.73;8.27;;;;;;;;;;5012360;28;20664;-79
2021/07/19 03:08:12;;;;;;;11.27;8.20;;;;;;;;;;5002204;28;20263;-79
2021/07/19 03:10:41;;;;;;;11.40;8.70;;;;;;;;;;5011840;28;20251;-79
2021/07/19 03:13:10;;;;;;;9.90;7.70;;;;;;;;;;5012346;28;20280;-79
2021/07/19 03:15:39;;;;;;;10.83;8.73;;;;;;;;;;5012609;28;20232;-79
2021/07/19 03:18:07;;;;;;;9.53;7.87;;;;;;;;;;5012593;28;20608;-79
2021/07/19 03:20:37;;;;;;;9.87;8.00;;;;;;;;;;5012555;28;20228;-79
2021/07/19 03:23:05;;;;;;;9.70;8.33;;;;;;;;;;5008915;28;20209;-79
2021/07/19 03:25:32;;;;;;;10.13;8.10;;;;;;;;;;4992542;28;20292;-79
2021/07/19 03:28:00;;;;;;;9.73;8.10;;;;;;;;;;5001790;28;20289;-80
2021/07/19 03:30:29;;;;;;;12.67;7.97;;;;;;;;;;5012168;28;20237;-79
2021/07/19 03:32:57;;;;;;;9.40;8.30;;;;;;;;;;5011883;28;20289;-79
2021/07/19 03:35:25;;;;;;;11.47;8.60;;;;;;;;;;5008197;28;20232;-79
2021/07/19 03:37:53;;;;;;;13.07;8.27;;;;;;;;;;4992353;28;20232;-79
2021/07/19 03:40:21;;;;;;;10.87;7.50;;;;;;;;;;5007831;28;20876;-79
2021/07/19 03:42:49;;;;;;;9.73;7.87;;;;;;;;;;5012142;28;20289;-79
2021/07/19 03:45:16;;;;;;;9.03;7.33;;;;;;;;;;5012152;28;20291;-79
2021/07/19 03:47:45;;;;;;;9.80;7.57;;;;;;;;;;5006663;28;20297;-79
2021/07/19 03:50:13;;;;;;;9.07;7.67;;;;;;;;;;5013077;28;20291;-79
2021/07/19 03:52:41;;;;;;;13.83;8.03;;;;;;;;;;5014374;28;20268;-79
2021/07/19 03:55:09;;;;;;;12.33;8.53;;;;;;;;;;5015681;28;20232;-79
2021/07/19 03:57:36;;;;;;;8.57;7.67;;;;;;;;;;5015213;28;20296;-79
2021/07/19 04:00:05;;;;;;;11.27;8.10;;;;;;;;;;5013171;28;20288;-79
2021/07/19 04:02:34;;;;;;;9.53;7.97;;;;;;;;;;4996531;28;20292;-79
2021/07/19 04:05:05;;;;;;;10.83;8.53;;;;;;;;;;4999963;28;20303;-79
2021/07/19 04:07:32;;;;;;;12.40;8.83;;;;;;;;;;4996685;28;20202;-79
2021/07/19 04:10:00;;;;;;;9.87;8.77;;;;;;;;;;4994104;28;20273;-79
2021/07/19 04:12:28;;;;;;;9.60;8.30;;;;;;;;;;4996489;28;20450;-79
2021/07/19 04:14:55;;;;;;;11.17;9.03;;;;;;;;;;5000490;28;20240;-79
2021/07/19 04:17:22;;;;;;;10.57;8.67;;;;;;;;;;5006693;28;20709;-79
2021/07/19 04:19:50;;;;;;;11.43;9.23;;;;;;;;;;5008567;28;20635;-79
2021/07/19 04:22:19;;;;;;;10.70;8.30;;;;;;;;;;5013618;28;20239;-79
2021/07/19 04:24:46;;;;;;;10.30;8.07;;;;;;;;;;5009174;28;20252;-79
2021/07/19 04:27:14;;;;;;;10.03;8.60;;;;;;;;;;5012514;28;20201;-79
2021/07/19 04:29:49;;;;;;;11.50;9.47;;;;;;;;;;4998747;28;20206;-79
2021/07/19 04:32:16;;;;;;;12.00;9.20;;;;;;;;;;4994771;28;20235;-79
2021/07/19 04:34:43;;;;;;;12.90;8.97;;;;;;;;;;4994359;28;20628;-79
2021/07/19 04:37:13;;;;;;;10.40;8.90;;;;;;;;;;4994416;28;20206;-80
2021/07/19 04:39:42;;;;;;;9.90;7.63;;;;;;;;;;5014169;28;20286;-80
2021/07/19 04:42:12;;;;;;;10.70;8.27;;;;;;;;;;5013241;28;20241;-79
2021/07/19 04:44:42;;;;;;;11.07;8.40;;;;;;;;;;5013609;28;20787;-79
2021/07/19 04:47:16;;;;;;;11.53;9.27;;;;;;;;;;5012695;28;20289;-79
2021/07/19 04:49:48;;;;;;;10.53;8.27;;;;;;;;;;4999600;28;20283;-80
2021/07/19 04:52:22;;;;;;;9.27;7.97;;;;;;;;;;4994072;28;20233;-79
2021/07/19 04:54:54;;;;;;;8.70;7.90;;;;;;;;;;5002574;28;20224;-79
2021/07/19 04:57:24;;;;;;;11.57;7.97;;;;;;;;;;5006875;28;20641;-79
2021/07/19 04:59:52;;;;;;;10.00;8.10;;;;;;;;;;5012497;28;20240;-79
2021/07/19 05:02:20;;;;;;;10.57;8.30;;;;;;;;;;5010055;28;20288;-79
2021/07/19 05:04:51;;;;;;;12.87;8.87;;;;;;;;;;5013423;28;20306;-80
2021/07/19 05:07:21;;;;;;;11.80;9.20;;;;;;;;;;5013096;28;20236;-79
2021/07/19 05:09:52;;;;;;;9.97;8.40;;;;;;;;;;4966075;28;1203167;-79
2021/07/19 05:12:23;;;;;;;9.00;8.00;;;;;;;;;;5014502;28;20296;-79
2021/07/19 05:14:50;;;;;;;11.93;8.47;;;;;;;;;;5011512;28;20654;-79
2021/07/19 05:17:18;;;;;;;10.53;8.67;;;;;;;;;;5006766;28;20292;-79
2021/07/19 05:19:46;;;;;;;12.43;9.20;;;;;;;;;;5014102;28;20289;-78
2021/07/19 05:22:13;;;;;;;11.10;9.20;;;;;;;;;;5012593;28;20292;-79
2021/07/19 05:24:41;;;;;;;10.20;9.20;;;;;;;;;;5009874;28;20221;-79
2021/07/19 05:27:09;;;;;;;12.27;9.80;;;;;;;;;;5013468;28;20340;-79
2021/07/19 05:29:38;;;;;;;9.87;8.50;;;;;;;;;;5009447;28;20225;-80
2021/07/19 05:32:06;;;;;;;12.47;8.83;;;;;;;;;;5014580;28;20239;-80
2021/07/19 05:34:33;;;;;;;10.97;8.93;;;;;;;;;;5012622;28;20684;-83
2021/07/19 05:37:00;;;;;;;8.93;8.03;;;;;;;;;;5013624;28;20219;-81
2021/07/19 05:39:28;;;;;;;10.50;7.43;;;;;;;;;;5013163;28;20205;-80
2021/07/19 05:41:55;;;;;;;8.37;7.53;;;;;;;;;;5013973;28;20237;-79
2021/07/19 05:44:22;;;;;;;8.20;7.35;;;;;;;;;;5005967;28;20300;-80
2021/07/19 05:46:51;;;;;;;7.97;7.05;;;;;;;;;;5012928;28;20288;-80
2021/07/19 05:49:18;;;;;;;8.60;7.40;;;;;;;;;;5014127;28;20241;-79
2021/07/19 05:51:48;;;;;;;10.20;6.72;;;;;;;;;;5009515;28;20280;-80
2021/07/19 05:54:35;;;;;;;;;;;;;;;;;;;;;
2021/07/19 05:57:02;;;;;;;8.80;6.53;;;;;;;;;;4997264;28;20213;-80
2021/07/19 05:59:30;;;;;;;7.20;6.43;;;;;;;;;;5002209;28;20743;-79
2021/07/19 06:01:58;;;;;;;6.20;5.60;;;;;;;;;;5008924;28;20236;-79
2021/07/19 06:04:25;;;;;;;8.98;5.75;;;;;;;;;;4993980;28;20697;-80
2021/07/19 06:06:52;;;;;;;8.15;5.93;;;;;;;;;;5001385;28;20260;-80
2021/07/19 06:09:20;;;;;;;8.13;6.43;;;;;;;;;;5008424;28;20265;-80
2021/07/19 06:14:55;;;;;;;8.43;5.82;;;;;;;;;;4970632;28;20567;-80
2021/07/19 06:17:24;;;;;;;8.30;5.55;;;;;;;;;;4958748;28;20282;-80
2021/07/19 06:19:51;;;;;;;7.30;5.30;;;;;;;;;;4956282;28;20299;-80
2021/07/19 06:22:18;;;;;;;7.05;5.70;;;;;;;;;;4967688;28;20211;-80
2021/07/19 06:24:50;;;;;;;7.47;5.45;;;;;;;;;;4958055;28;20699;-79
2021/07/19 06:27:18;;;;;;;7.32;5.82;;;;;;;;;;4970789;28;20257;-80
2021/07/19 06:29:45;;;;;;;6.07;5.47;;;;;;;;;;4970441;28;20202;-81
2021/07/19 06:32:16;;;;;;;6.57;5.78;;;;;;;;;;4954385;28;20211;-81
2021/07/19 06:34:53;;;;;;;7.38;5.13;;;;;;;;;;4957004;28;20333;-81
2021/07/19 06:37:30;;;;;;;5.90;5.40;;;;;;;;;;4966338;28;20285;-81
2021/07/19 06:40:11;;;;;;;5.70;5.20;;;;;;;;;;4962290;28;20211;-81
2021/07/19 06:42:38;;;;;;;8.38;5.40;;;;;;;;;;4962345;28;20195;-81
2021/07/19 06:45:06;;;;;;;6.40;5.28;;;;;;;;;;4964659;28;20271;-81
2021/07/19 06:47:33;;;;;;;7.65;5.53;;;;;;;;;;4964690;28;20234;-81
2021/07/19 06:50:07;;;;;;;6.30;5.20;;;;;;;;;;4971275;28;20297;-81
2021/07/19 06:52:37;;;;;;;6.85;5.10;;;;;;;;;;4997777;28;20209;-81
2021/07/19 06:55:05;;;;;;;8.07;4.82;;;;;;;;;;5012318;28;20197;-81
2021/07/19 06:57:44;;;;;;;5.32;4.82;;;;;;;;;;5011313;28;20243;-82
2021/07/19 07:00:25;;;;;;;7.05;5.30;;;;;;;;;;5011214;28;20255;-82
2021/07/19 07:02:52;;;;;;;6.20;4.88;;;;;;;;;;5004988;28;20284;-82
2021/07/19 07:05:21;;;;;;;6.25;4.80;;;;;;;;;;5006861;28;20308;-81
2021/07/19 07:07:50;;;;;;;5.55;4.95;;;;;;;;;;5003050;28;20224;-82
2021/07/19 07:10:18;;;;;;;5.88;4.70;;;;;;;;;;5009733;28;20216;-82
2021/07/19 07:12:46;;;;;;;5.00;4.50;;;;;;;;;;5011666;28;20201;-82
2021/07/19 07:15:13;;;;;;;7.30;4.88;;;;;;;;;;4999052;28;20248;-82
2021/07/19 07:17:42;;;;;;;5.95;4.57;;;;;;;;;;4994886;28;20229;-81
2021/07/19 07:20:10;;;;;;;5.18;4.68;;;;;;;;;;5010192;28;20577;-82
2021/07/19 07:22:39;;;;;;;6.55;4.68;;;;;;;;;;4999115;28;20225;-82
2021/07/19 07:25:10;;;;;;;8.02;5.13;;;;;;;;;;5007921;28;20275;-82
2021/07/19 07:27:38;;;;;;;7.88;4.70;;;;;;;;;;5010941;28;20261;-82
2021/07/19 07:30:06;;;;;;;5.07;4.57;;;;;;;;;;5009305;28;20228;-82
2021/07/19 07:32:34;;;;;;;5.97;4.35;;;;;;;;;;5004325;28;20197;-83
2021/07/19 07:35:02;;;;;;;5.07;4.63;;;;;;;;;;5003761;28;20287;-81
2021/07/19 07:37:30;;;;;;;4.75;4.25;;;;;;;;;;4999910;28;20197;-82
2021/07/19 07:39:58;;;;;;;5.18;4.68;;;;;;;;;;5009231;28;20255;-82
2021/07/19 07:42:26;;;;;;;6.15;4.78;;;;;;;;;;5006828;28;20232;-82
2021/07/19 07:44:53;;;;;;;7.07;5.20;;;;;;;;;;4996060;28;20257;-82
2021/07/19 07:47:20;;;;;;;5.55;5.05;;;;;;;;;;5008820;28;20276;-82
2021/07/19 07:49:48;;;;;;;7.18;4.65;;;;;;;;;;5004163;28;20224;-82
2021/07/19 07:52:17;;;;;;;6.03;4.50;;;;;;;;;;5001017;28;20231;-83
2021/07/19 07:54:44;;;;;;;5.00;4.43;;;;;;;;;;5008232;28;20292;-83
2021/07/19 07:57:13;;;;;;;5.80;5.20;;;;;;;;;;4993880;28;20870;-81
2021/07/19 07:59:40;;;;;;;5.55;4.60;;;;;;;;;;4992806;28;20724;-83
2021/07/19 08:02:08;;;;;;;6.00;4.40;;;;;;;;;;4993047;28;20248;-82
2021/07/19 08:04:36;;;;;;;7.43;4.80;;;;;;;;;;4995942;28;20681;-82
2021/07/19 08:07:04;;;;;;;5.82;4.50;;;;;;;;;;5005480;28;20209;-82
2021/07/19 08:09:31;;;;;;;4.95;4.05;;;;;;;;;;5000305;28;20265;-82
2021/07/19 08:11:58;;;;;;;5.30;4.60;;;;;;;;;;4999888;28;20237;-81
2021/07/19 08:14:27;;;;;;;5.65;4.78;;;;;;;;;;5006267;28;20292;-81
2021/07/19 08:16:54;;;;;;;9.52;4.93;;;;;;;;;;4997061;28;20233;-81
2021/07/19 08:19:33;;;;;;;6.15;4.47;;;;;;;;;;5000777;28;20629;-81
2021/07/19 08:22:11;;;;;;;4.80;4.13;;;;;;;;;;5000381;28;20228;-81
2021/07/19 08:24:38;;;;;;;8.38;4.82;;;;;;;;;;5003382;28;20209;-81
2021/07/19 08:27:06;;;;;;;6.38;4.40;;;;;;;;;;5002995;28;20284;-81
2021/07/19 08:29:35;;;;;;;5.00;4.22;;;;;;;;;;5003884;28;20204;-80
2021/07/19 08:32:02;;;;;;;7.13;4.70;;;;;;;;;;5003332;28;20283;-81
2021/07/19 08:34:30;;;;;;;5.38;4.78;;;;;;;;;;4999785;28;20212;-83
2021/07/19 08:36:57;;;;;;;5.50;4.57;;;;;;;;;;5003156;28;20285;-82
2021/07/19 08:39:24;;;;;;;7.05;4.45;;;;;;;;;;5002779;28;20282;-82
2021/07/19 08:41:52;;;;;;;4.88;4.30;;;;;;;;;;5003071;28;20284;-82
2021/07/19 08:44:20;;;;;;;6.72;4.53;;;;;;;;;;5006185;28;20582;-82
2021/07/19 08:46:49;;;;;;;5.03;4.22;;;;;;;;;;5007037;28;20309;-82
2021/07/19 08:49:16;;;;;;;5.97;4.82;;;;;;;;;;5009162;28;20212;-82
2021/07/19 08:51:44;;;;;;;5.60;4.78;;;;;;;;;;5012520;28;20232;-82
2021/07/19 08:54:12;;;;;;;4.80;4.20;;;;;;;;;;5006951;28;20280;-82
2021/07/19 08:56:40;;;;;;;6.50;4.40;;;;;;;;;;5010334;28;20280;-81
2021/07/19 08:59:08;;;;;;;4.82;4.30;;;;;;;;;;5002560;28;20280;-82
2021/07/19 09:01:35;;;;;;;6.45;4.72;;;;;;;;;;5002786;28;20685;-82
2021/07/19 09:04:04;;;;;;;5.55;4.38;;;;;;;;;;5005494;28;20688;-81
2021/07/19 09:06:31;;;;;;;4.97;4.45;;;;;;;;;;5013581;28;20260;-82
2021/07/19 09:09:02;;;;;;;5.00;4.47;;;;;;;;;;5005257;28;20704;-82
2021/07/19 09:11:29;;;;;;;6.75;4.47;;;;;;;;;;5006080;28;20205;-82
2021/07/19 09:13:57;;;;;;;5.78;4.40;;;;;;;;;;5004190;28;20235;-81
2021/07/19 09:16:25;;;;;;;6.47;4.50;;;;;;;;;;5005196;28;20233;-81
2021/07/19 09:19:04;;;;;;;6.53;4.25;;;;;;;;;;5003918;28;20291;-81
2021/07/19 09:21:32;;;;;;;6.50;4.50;;;;;;;;;;5001769;28;20240;-81
2021/07/19 09:24:03;;;;;;;6.43;4.72;;;;;;;;;;5001952;28;20241;-82
2021/07/19 09:26:31;;;;;;;6.03;4.95;;;;;;;;;;5011005;28;20327;-82
2021/07/19 09:28:59;;;;;;;4.95;4.50;;;;;;;;;;5005032;28;20803;-82
2021/07/19 09:31:32;;;;;;;5.47;4.57;;;;;;;;;;5007604;28;20212;-82
2021/07/19 09:33:59;;;;;;;5.97;4.38;;;;;;;;;;5007703;28;20217;-82
2021/07/19 09:36:31;;;;;;;5.05;4.55;;;;;;;;;;5008032;28;20201;-82
2021/07/19 09:39:06;;;;;;;9.00;4.60;;;;;;;;;;5004930;28;20286;-82
2021/07/19 09:41:33;;;;;;;4.95;4.30;;;;;;;;;;5012320;28;20209;-83
2021/07/19 09:44:00;;;;;;;6.03;4.45;;;;;;;;;;4995208;28;21646;-82
2021/07/19 09:46:34;;;;;;;5.85;4.63;;;;;;;;;;5002828;28;20221;-82
2021/07/19 09:49:01;;;;;;;5.43;4.53;;;;;;;;;;5004126;28;20293;-82
2021/07/19 09:51:30;;;;;;;5.95;4.35;;;;;;;;;;5006833;28;20283;-83
2021/07/19 09:53:57;;;;;;;5.63;4.30;;;;;;;;;;5002312;28;20232;-83
2021/07/19 09:56:24;;;;;;;8.18;4.30;;;;;;;;;;5004011;28;20276;-83
2021/07/19 09:58:52;;;;;;;6.07;4.32;;;;;;;;;;5001990;28;20197;-83
2021/07/19 10:01:27;;;;;;;5.40;4.40;;;;;;;;;;4999004;28;20201;-83
2021/07/19 10:04:05;;;;;;;5.75;4.00;;;;;;;;;;4999263;28;20203;-82
2021/07/19 10:06:33;;;;;;;4.97;4.22;;;;;;;;;;5005896;28;20256;-81
2021/07/19 10:09:01;;;;;;;7.75;4.22;;;;;;;;;;5006350;28;20275;-80
2021/07/19 10:11:32;;;;;;;5.97;4.20;;;;;;;;;;5003385;28;20266;-80
2021/07/19 10:13:59;;;;;;;8.25;4.50;;;;;;;;;;5001347;28;20200;-80
2021/07/19 10:16:28;;;;;;;7.00;4.25;;;;;;;;;;5008354;28;20221;-80
2021/07/19 10:18:55;;;;;;;6.32;4.30;;;;;;;;;;5000773;28;20611;-80
2021/07/19 10:21:23;;;;;;;7.60;4.43;;;;;;;;;;4999398;28;20236;-80
2021/07/19 10:23:52;;;;;;;6.05;4.00;;;;;;;;;;5010924;28;20204;-80
2021/07/19 10:26:19;;;;;;;6.85;4.32;;;;;;;;;;5004689;28;20228;-80
2021/07/19 10:28:46;;;;;;;8.13;3.85;;;;;;;;;;5007670;28;20291;-80
2021/07/19 10:31:13;;;;;;;6.43;3.92;;;;;;;;;;5008090;28;20229;-80
2021/07/19 10:33:41;;;;;;;6.60;4.10;;;;;;;;;;5004141;28;20284;-80
2021/07/19 10:36:11;;;;;;;5.03;4.07;;;;;;;;;;5002661;28;20220;-80
2021/07/19 10:38:41;;;;;;;4.55;3.83;;;;;;;;;;4996704;28;20223;-80
2021/07/19 10:41:10;;;;;;;5.43;4.07;;;;;;;;;;4995244;28;20636;-80
2021/07/19 10:43:38;;;;;;;6.78;4.15;;;;;;;;;;5001056;28;20197;-80
2021/07/19 10:46:09;;;;;;;5.53;4.25;;;;;;;;;;5009873;28;20244;-80
2021/07/19 10:48:36;;;;;;;11.55;4.72;;;;;;;;;;4992338;28;20259;-80
2021/07/19 10:51:18;;;;;;;5.45;4.28;;;;;;;;;;4997771;28;20307;-80
2021/07/19 10:53:45;;;;;;;6.35;4.47;;;;;;;;;;5012023;28;20215;-81
2021/07/19 10:56:16;;;;;;;5.57;4.22;;;;;;;;;;5001571;28;20228;-81
2021/07/19 10:58:45;;;;;;;4.88;4.22;;;;;;;;;;5003266;28;20310;-81
2021/07/19 11:01:23;;;;;;;4.35;3.92;;;;;;;;;;5010144;28;20232;-81
2021/07/19 11:03:50;;;;;;;6.40;3.85;;;;;;;;;;5010181;28;20196;-82
2021/07/19 11:06:18;;;;;;;4.63;4.00;;;;;;;;;;5010417;28;20315;-81
2021/07/19 11:08:49;;;;;;;5.35;4.13;;;;;;;;;;5004794;28;20264;-81
2021/07/19 11:11:31;;;;;;;5.32;4.43;;;;;;;;;;4996756;28;20247;-81
2021/07/19 11:13:59;;;;;;;7.40;3.97;;;;;;;;;;5006942;28;20272;-81
2021/07/19 11:16:26;;;;;;;4.57;3.65;;;;;;;;;;5010528;28;20232;-81
2021/07/19 11:19:01;;;;;;;6.75;3.90;;;;;;;;;;5005230;28;20691;-81
2021/07/19 11:21:30;;;;;;;5.20;3.78;;;;;;;;;;5007971;28;20215;-81
2021/07/19 11:24:07;;;;;;;3.80;3.50;;;;;;;;;;5003920;28;20239;-81
2021/07/19 11:26:48;;;;;;;5.50;3.80;;;;;;;;;;5009665;28;20266;-81
2021/07/19 11:29:26;;;;;;;7.78;3.90;;;;;;;;;;5002500;28;20632;-80
2021/07/19 11:32:04;;;;;;;5.00;3.80;;;;;;;;;;5011577;28;20283;-81
2021/07/19 11:34:34;;;;;;;5.97;3.97;;;;;;;;;;5004462;28;20640;-81
2021/07/19 11:37:01;;;;;;;5.95;4.03;;;;;;;;;;4997666;28;20213;-81
2021/07/19 11:39:29;;;;;;;5.50;3.63;;;;;;;;;;4997553;28;20204;-81
2021/07/19 11:42:04;;;;;;;6.65;3.78;;;;;;;;;;5009227;28;20197;-80
2021/07/19 11:44:32;;;;;;;5.18;3.72;;;;;;;;;;5006930;28;20234;-83
2021/07/19 11:47:03;;;;;;;4.82;3.85;;;;;;;;;;5002449;28;20224;-79
2021/07/19 11:49:31;;;;;;;5.88;3.90;;;;;;;;;;4999244;28;20280;-81
2021/07/19 11:51:59;;;;;;;5.50;3.65;;;;;;;;;;5007140;28;20296;-80
2021/07/19 11:54:26;;;;;;;6.30;3.97;;;;;;;;;;5009569;28;20232;-80
2021/07/19 11:56:55;;;;;;;7.40;3.55;;;;;;;;;;5005457;28;20228;-81
2021/07/19 11:59:24;;;;;;;6.32;3.60;;;;;;;;;;5002624;28;20227;-81
2021/07/19 12:01:56;;;;;;;7.15;3.75;;;;;;;;;;5006721;28;20266;-81
2021/07/19 12:04:23;;;;;;;5.10;3.80;;;;;;;;;;5000023;28;20204;-81
2021/07/19 12:06:52;;;;;;;5.57;3.90;;;;;;;;;;5001225;28;20535;-81
2021/07/19 12:09:20;;;;;;;4.18;3.78;;;;;;;;;;5007579;28;20232;-81
2021/07/19 12:11:53;;;;;;;7.40;3.70;;;;;;;;;;5005597;28;20284;-81
2021/07/19 12:14:20;;;;;;;4.35;3.70;;;;;;;;;;5006382;28;20208;-81
2021/07/19 12:16:49;;;;;;;4.63;3.63;;;;;;;;;;5008880;28;20668;-80
2021/07/19 12:19:17;;;;;;;8.07;3.63;;;;;;;;;;5005512;28;20243;-81
2021/07/19 12:21:45;;;;;;;8.55;4.00;;;;;;;;;;5002173;28;20224;-81
2021/07/19 12:24:13;;;;;;;5.63;3.63;;;;;;;;;;5004837;28;20201;-81
2021/07/19 12:26:42;;;;;;;6.57;3.50;;;;;;;;;;4999982;28;20248;-80
2021/07/19 12:29:10;;;;;;;7.85;3.38;;;;;;;;;;5008457;28;20283;-81
2021/07/19 12:31:38;;;;;;;6.60;3.67;;;;;;;;;;5004646;28;20229;-80
2021/07/19 12:34:07;;;;;;;6.97;3.75;;;;;;;;;;5004131;28;20205;-80
2021/07/19 12:36:35;;;;;;;9.15;3.75;;;;;;;;;;5006685;28;20196;-80
2021/07/19 12:39:04;;;;;;;7.65;3.88;;;;;;;;;;5004930;28;20247;-80
2021/07/19 12:41:32;;;;;;;5.68;3.15;;;;;;;;;;5007852;28;20640;-80
2021/07/19 12:44:02;;;;;;;7.15;3.70;;;;;;;;;;5002054;28;20550;-81
2021/07/19 12:46:29;;;;;;;12.93;4.70;;;;;;;;;;5003939;28;20304;-80
2021/07/19 12:48:56;;;;;;;7.18;3.92;;;;;;;;;;5005456;28;20228;-80
2021/07/19 12:51:26;;;;;;;6.95;3.40;;;;;;;;;;5011317;28;20235;-80
2021/07/19 12:54:00;;;;;;;7.75;3.50;;;;;;;;;;5013881;28;20284;-80
2021/07/19 12:56:28;;;;;;;8.18;3.60;;;;;;;;;;5008804;28;20224;-80
2021/07/19 12:58:55;;;;;;;6.28;3.55;;;;;;;;;;5002438;28;20240;-80
2021/07/19 13:01:26;;;;;;;8.07;3.95;;;;;;;;;;5007179;28;20230;-80
2021/07/19 13:04:00;;;;;;;8.60;3.58;;;;;;;;;;5005136;28;20282;-80
2021/07/19 13:06:29;;;;;;;7.68;3.92;;;;;;;;;;4995144;28;20255;-80
2021/07/19 13:08:56;;;;;;;8.27;4.05;;;;;;;;;;5005054;28;20320;-79
2021/07/19 13:11:23;;;;;;;6.75;3.70;;;;;;;;;;5004786;28;20317;-79
2021/07/19 13:13:50;;;;;;;7.07;3.65;;;;;;;;;;5006758;28;20284;-79
2021/07/19 13:16:23;;;;;;;7.15;3.85;;;;;;;;;;5000439;28;20259;-78
2021/07/19 13:18:56;;;;;;;7.32;3.83;;;;;;;;;;5003768;28;20205;-78
2021/07/19 13:21:24;;;;;;;8.32;3.90;;;;;;;;;;5009471;28;20723;-78
2021/07/19 13:23:53;;;;;;;9.43;3.90;;;;;;;;;;4996835;28;20650;-79
2021/07/19 13:26:20;;;;;;;7.07;3.75;;;;;;;;;;5005191;28;20288;-78
2021/07/19 13:28:48;;;;;;;6.90;4.20;;;;;;;;;;4996879;28;20686;-79
2021/07/19 13:31:15;;;;;;;8.80;3.70;;;;;;;;;;5005407;28;20201;-79
2021/07/19 13:33:44;;;;;;;7.55;3.70;;;;;;;;;;5008589;28;20291;-79
2021/07/19 13:36:11;;;;;;;6.25;3.72;;;;;;;;;;5004497;28;20208;-79
2021/07/19 13:38:39;;;;;;;6.75;3.83;;;;;;;;;;5005989;28;20284;-79
2021/07/19 13:41:08;;;;;;;5.57;3.92;;;;;;;;;;5009475;28;20644;-78
2021/07/19 13:43:39;;;;;;;7.07;3.83;;;;;;;;;;5005768;28;20284;-79
2021/07/19 13:46:06;;;;;;;9.48;4.20;;;;;;;;;;5012955;28;20283;-79
2021/07/19 13:48:34;;;;;;;8.13;4.20;;;;;;;;;;5004288;28;20666;-78
2021/07/19 13:51:02;;;;;;;8.05;4.50;;;;;;;;;;5000173;28;20209;-79
2021/07/19 13:53:29;;;;;;;7.05;4.03;;;;;;;;;;4995531;28;20296;-78
2021/07/19 13:55:57;;;;;;;6.57;4.03;;;;;;;;;;4997097;28;21710;-79
2021/07/19 13:58:26;;;;;;;7.63;4.15;;;;;;;;;;4998086;28;20225;-78
2021/07/19 14:00:54;;;;;;;6.55;4.35;;;;;;;;;;5000875;28;20197;-79
2021/07/19 14:03:21;;;;;;;6.72;4.30;;;;;;;;;;5007615;28;20296;-79
2021/07/19 14:05:48;;;;;;;8.23;4.32;;;;;;;;;;5001479;28;20649;-79
2021/07/19 14:08:16;;;;;;;10.13;4.45;;;;;;;;;;5003538;28;20312;-79
2021/07/19 14:10:43;;;;;;;7.00;4.03;;;;;;;;;;5009699;28;20197;-79
2021/07/19 14:13:12;;;;;;;4.82;3.97;;;;;;;;;;5009889;28;20287;-79
2021/07/19 14:15:41;;;;;;;6.22;4.45;;;;;;;;;;5000925;28;20276;-79
2021/07/19 14:18:08;;;;;;;5.93;4.20;;;;;;;;;;5008827;28;20285;-79
2021/07/19 14:20:36;;;;;;;11.75;4.47;;;;;;;;;;5004355;28;20233;-79
2021/07/19 14:23:03;;;;;;;6.80;4.40;;;;;;;;;;5007248;28;20197;-79
2021/07/19 14:25:31;;;;;;;8.70;4.30;;;;;;;;;;5004547;28;20640;-78
2021/07/19 14:27:59;;;;;;;5.55;4.38;;;;;;;;;;5000176;28;20276;-79
2021/07/19 14:30:27;;;;;;;5.93;4.20;;;;;;;;;;5005595;28;20205;-79
2021/07/19 14:32:56;;;;;;;5.78;4.15;;;;;;;;;;5006922;28;20208;-78
2021/07/19 14:35:24;;;;;;;5.80;4.10;;;;;;;;;;5004103;28;20618;-79
2021/07/19 14:37:51;;;;;;;6.45;4.38;;;;;;;;;;5004379;28;20574;-79
2021/07/19 14:40:19;;;;;;;6.88;4.10;;;;;;;;;;5007306;28;20316;-78
2021/07/19 14:42:47;;;;;;;6.38;4.05;;;;;;;;;;5004240;28;20285;-78
2021/07/19 14:45:14;;;;;;;8.18;4.60;;;;;;;;;;5002466;28;20212;-79
2021/07/19 14:47:42;;;;;;;6.55;4.45;;;;;;;;;;5003263;28;20875;-79
2021/07/19 14:50:11;;;;;;;7.18;4.75;;;;;;;;;;4996256;28;20263;-79
2021/07/19 14:52:38;;;;;;;6.80;4.68;;;;;;;;;;5008065;28;20575;-78